sensor_id;sensor_type;location;lat;lon;timestamp;P1;durP1;ratioP1;P2;durP2;ratioP2
63201;SDS011;49296;48.188;11.566;2023-02-18T00:01:53;6.72;;;3.03;;
63201;SDS011;49296;48.188;11.566;2023-02-18T00:04:20;6.95;;;3.25;;
63201;SDS011;49296;48.188;11.566;2023-02-18T00:06:47;6.97;;;3.20;;
63201;SDS011;49296;48.188;11.566;2023-02-18T00:09:14;8.88;;;3.72;;
63201;SDS011;49296;48.188;11.566;2023-02-18T00:11:40;7.22;;;3.17;;
63201;SDS011;49296;48.188;11.566;2023-02-18T00:14:09;7.32;;;3.70;;
63201;SDS011;49296;48.188;11.566;2023-02-18T00:16:39;6.25;;;3.20;;
63201;SDS011;49296;48.188;11.566;2023-02-18T00:19:06;6.80;;;3.78;;
63201;SDS011;49296;48.188;11.566;2023-02-18T00:21:36;7.65;;;3.58;;
63201;SDS011;49296;48.188;11.566;2023-02-18T00:24:03;8.65;;;3.45;;
63201;SDS011;49296;48.188;11.566;2023-02-18T00:26:30;6.18;;;3.47;;
63201;SDS011;49296;48.188;11.566;2023-02-18T00:28:57;9.25;;;3.75;;
63201;SDS011;49296;48.188;11.566;2023-02-18T00:31:26;7.38;;;3.47;;
63201;SDS011;49296;48.188;11.566;2023-02-18T00:33:55;9.77;;;3.40;;
63201;SDS011;49296;48.188;11.566;2023-02-18T00:36:23;9.05;;;3.70;;
63201;SDS011;49296;48.188;11.566;2023-02-18T00:38:51;6.55;;;3.05;;
63201;SDS011;49296;48.188;11.566;2023-02-18T00:41:19;6.03;;;3.25;;
63201;SDS011;49296;48.188;11.566;2023-02-18T00:43:47;5.97;;;2.75;;
63201;SDS011;49296;48.188;11.566;2023-02-18T00:46:14;5.88;;;3.47;;
63201;SDS011;49296;48.188;11.566;2023-02-18T00:48:43;6.82;;;3.00;;
63201;SDS011;49296;48.188;11.566;2023-02-18T00:51:11;6.55;;;3.08;;
63201;SDS011;49296;48.188;11.566;2023-02-18T00:53:38;6.35;;;3.03;;
63201;SDS011;49296;48.188;11.566;2023-02-18T00:56:05;6.32;;;3.13;;
63201;SDS011;49296;48.188;11.566;2023-02-18T00:58:32;5.57;;;3.05;;
63201;SDS011;49296;48.188;11.566;2023-02-18T01:00:59;6.57;;;3.15;;
63201;SDS011;49296;48.188;11.566;2023-02-18T01:03:25;6.85;;;3.53;;
63201;SDS011;49296;48.188;11.566;2023-02-18T01:05:52;5.18;;;2.60;;
63201;SDS011;49296;48.188;11.566;2023-02-18T01:08:20;6.07;;;2.70;;
63201;SDS011;49296;48.188;11.566;2023-02-18T01:10:48;6.53;;;3.00;;
63201;SDS011;49296;48.188;11.566;2023-02-18T01:13:18;6.22;;;2.85;;
63201;SDS011;49296;48.188;11.566;2023-02-18T01:15:44;8.93;;;3.03;;
63201;SDS011;49296;48.188;11.566;2023-02-18T01:18:11;6.47;;;2.80;;
63201;SDS011;49296;48.188;11.566;2023-02-18T01:20:39;5.35;;;2.85;;
63201;SDS011;49296;48.188;11.566;2023-02-18T01:23:07;5.18;;;2.22;;
63201;SDS011;49296;48.188;11.566;2023-02-18T01:25:36;6.22;;;2.90;;
63201;SDS011;49296;48.188;11.566;2023-02-18T01:28:04;6.28;;;3.17;;
63201;SDS011;49296;48.188;11.566;2023-02-18T01:30:31;5.38;;;2.60;;
63201;SDS011;49296;48.188;11.566;2023-02-18T01:32:59;7.05;;;3.28;;
63201;SDS011;49296;48.188;11.566;2023-02-18T01:35:26;6.00;;;2.83;;
63201;SDS011;49296;48.188;11.566;2023-02-18T01:37:52;4.88;;;2.45;;
63201;SDS011;49296;48.188;11.566;2023-02-18T01:40:21;6.25;;;3.10;;
63201;SDS011;49296;48.188;11.566;2023-02-18T01:42:50;6.38;;;2.92;;
63201;SDS011;49296;48.188;11.566;2023-02-18T01:45:35;5.43;;;2.58;;
63201;SDS011;49296;48.188;11.566;2023-02-18T01:48:14;7.53;;;2.85;;
63201;SDS011;49296;48.188;11.566;2023-02-18T01:50:44;6.82;;;2.78;;
63201;SDS011;49296;48.188;11.566;2023-02-18T01:53:14;6.40;;;2.60;;
63201;SDS011;49296;48.188;11.566;2023-02-18T01:55:43;6.63;;;3.60;;
63201;SDS011;49296;48.188;11.566;2023-02-18T01:58:14;4.95;;;2.72;;
63201;SDS011;49296;48.188;11.566;2023-02-18T02:00:41;7.35;;;2.83;;
63201;SDS011;49296;48.188;11.566;2023-02-18T02:03:08;5.57;;;2.80;;
63201;SDS011;49296;48.188;11.566;2023-02-18T02:05:35;5.88;;;2.60;;
63201;SDS011;49296;48.188;11.566;2023-02-18T02:08:01;6.88;;;3.00;;
63201;SDS011;49296;48.188;11.566;2023-02-18T02:10:31;5.88;;;2.80;;
63201;SDS011;49296;48.188;11.566;2023-02-18T02:13:06;6.90;;;3.30;;
63201;SDS011;49296;48.188;11.566;2023-02-18T02:15:43;6.63;;;3.10;;
63201;SDS011;49296;48.188;11.566;2023-02-18T02:18:25;6.95;;;3.63;;
63201;SDS011;49296;48.188;11.566;2023-02-18T02:21:10;5.93;;;3.38;;
63201;SDS011;49296;48.188;11.566;2023-02-18T02:24:17;7.65;;;3.70;;
63201;SDS011;49296;48.188;11.566;2023-02-18T02:27:13;8.45;;;3.20;;
63201;SDS011;49296;48.188;11.566;2023-02-18T02:33:02;7.32;;;3.50;;
63201;SDS011;49296;48.188;11.566;2023-02-18T02:39:11;5.90;;;3.03;;
63201;SDS011;49296;48.188;11.566;2023-02-18T02:41:45;6.80;;;3.03;;
63201;SDS011;49296;48.188;11.566;2023-02-18T02:44:20;7.55;;;3.30;;
63201;SDS011;49296;48.188;11.566;2023-02-18T02:46:53;5.63;;;3.53;;
63201;SDS011;49296;48.188;11.566;2023-02-18T02:49:29;6.30;;;3.10;;
63201;SDS011;49296;48.188;11.566;2023-02-18T02:52:02;6.30;;;3.10;;
63201;SDS011;49296;48.188;11.566;2023-02-18T02:57:04;5.18;;;2.45;;
63201;SDS011;49296;48.188;11.566;2023-02-18T02:59:33;5.22;;;2.75;;
63201;SDS011;49296;48.188;11.566;2023-02-18T03:02:07;5.38;;;2.63;;
63201;SDS011;49296;48.188;11.566;2023-02-18T03:04:50;4.93;;;2.50;;
63201;SDS011;49296;48.188;11.566;2023-02-18T03:07:38;5.00;;;2.40;;
63201;SDS011;49296;48.188;11.566;2023-02-18T03:10:20;7.90;;;3.53;;
63201;SDS011;49296;48.188;11.566;2023-02-18T03:12:58;5.32;;;2.72;;
63201;SDS011;49296;48.188;11.566;2023-02-18T03:15:34;5.63;;;2.58;;
63201;SDS011;49296;48.188;11.566;2023-02-18T03:18:06;5.90;;;2.40;;
63201;SDS011;49296;48.188;11.566;2023-02-18T03:20:40;5.05;;;2.22;;
63201;SDS011;49296;48.188;11.566;2023-02-18T03:23:13;5.90;;;2.42;;
63201;SDS011;49296;48.188;11.566;2023-02-18T03:25:46;6.00;;;2.42;;
63201;SDS011;49296;48.188;11.566;2023-02-18T03:28:16;5.32;;;2.47;;
63201;SDS011;49296;48.188;11.566;2023-02-18T03:30:45;4.82;;;2.90;;
63201;SDS011;49296;48.188;11.566;2023-02-18T03:33:16;6.32;;;2.55;;
63201;SDS011;49296;48.188;11.566;2023-02-18T03:35:47;4.72;;;2.47;;
63201;SDS011;49296;48.188;11.566;2023-02-18T03:38:15;5.07;;;2.45;;
63201;SDS011;49296;48.188;11.566;2023-02-18T03:40:47;4.82;;;2.67;;
63201;SDS011;49296;48.188;11.566;2023-02-18T03:43:14;5.05;;;2.33;;
63201;SDS011;49296;48.188;11.566;2023-02-18T03:45:41;4.88;;;2.47;;
63201;SDS011;49296;48.188;11.566;2023-02-18T03:48:07;4.75;;;2.40;;
63201;SDS011;49296;48.188;11.566;2023-02-18T03:50:34;4.45;;;2.38;;
63201;SDS011;49296;48.188;11.566;2023-02-18T03:53:01;4.30;;;2.38;;
63201;SDS011;49296;48.188;11.566;2023-02-18T03:55:27;4.55;;;2.30;;
63201;SDS011;49296;48.188;11.566;2023-02-18T03:57:55;4.60;;;2.25;;
63201;SDS011;49296;48.188;11.566;2023-02-18T04:00:22;4.53;;;2.05;;
63201;SDS011;49296;48.188;11.566;2023-02-18T04:02:49;4.32;;;2.10;;
63201;SDS011;49296;48.188;11.566;2023-02-18T04:05:15;4.00;;;2.20;;
63201;SDS011;49296;48.188;11.566;2023-02-18T04:07:42;4.28;;;2.30;;
63201;SDS011;49296;48.188;11.566;2023-02-18T04:10:09;5.00;;;2.42;;
63201;SDS011;49296;48.188;11.566;2023-02-18T04:12:36;4.75;;;2.50;;
63201;SDS011;49296;48.188;11.566;2023-02-18T04:15:04;6.15;;;2.65;;
63201;SDS011;49296;48.188;11.566;2023-02-18T04:17:31;5.60;;;2.80;;
63201;SDS011;49296;48.188;11.566;2023-02-18T04:19:58;3.80;;;2.20;;
63201;SDS011;49296;48.188;11.566;2023-02-18T04:22:25;4.60;;;2.50;;
63201;SDS011;49296;48.188;11.566;2023-02-18T04:24:52;4.65;;;2.42;;
63201;SDS011;49296;48.188;11.566;2023-02-18T04:27:18;4.93;;;2.60;;
63201;SDS011;49296;48.188;11.566;2023-02-18T04:29:45;5.68;;;2.55;;
63201;SDS011;49296;48.188;11.566;2023-02-18T04:32:13;7.32;;;2.67;;
63201;SDS011;49296;48.188;11.566;2023-02-18T04:34:39;5.15;;;2.80;;
63201;SDS011;49296;48.188;11.566;2023-02-18T04:37:06;5.40;;;2.88;;
63201;SDS011;49296;48.188;11.566;2023-02-18T04:39:33;4.78;;;2.53;;
63201;SDS011;49296;48.188;11.566;2023-02-18T04:41:59;6.38;;;3.08;;
63201;SDS011;49296;48.188;11.566;2023-02-18T04:44:26;5.78;;;2.85;;
63201;SDS011;49296;48.188;11.566;2023-02-18T04:46:53;5.93;;;2.90;;
63201;SDS011;49296;48.188;11.566;2023-02-18T04:49:21;5.32;;;3.00;;
63201;SDS011;49296;48.188;11.566;2023-02-18T04:51:47;5.00;;;2.88;;
63201;SDS011;49296;48.188;11.566;2023-02-18T04:54:14;4.75;;;2.95;;
63201;SDS011;49296;48.188;11.566;2023-02-18T04:56:41;5.00;;;2.38;;
63201;SDS011;49296;48.188;11.566;2023-02-18T04:59:07;5.43;;;2.50;;
63201;SDS011;49296;48.188;11.566;2023-02-18T05:01:35;5.22;;;2.47;;
63201;SDS011;49296;48.188;11.566;2023-02-18T05:04:02;4.95;;;2.38;;
63201;SDS011;49296;48.188;11.566;2023-02-18T05:06:30;5.03;;;2.50;;
63201;SDS011;49296;48.188;11.566;2023-02-18T05:08:57;5.20;;;2.35;;
63201;SDS011;49296;48.188;11.566;2023-02-18T05:11:23;4.85;;;2.33;;
63201;SDS011;49296;48.188;11.566;2023-02-18T05:13:50;4.93;;;2.53;;
63201;SDS011;49296;48.188;11.566;2023-02-18T05:16:16;6.22;;;2.60;;
63201;SDS011;49296;48.188;11.566;2023-02-18T05:18:43;4.22;;;2.47;;
63201;SDS011;49296;48.188;11.566;2023-02-18T05:21:10;3.92;;;2.25;;
63201;SDS011;49296;48.188;11.566;2023-02-18T05:23:38;4.35;;;2.22;;
63201;SDS011;49296;48.188;11.566;2023-02-18T05:26:05;4.43;;;2.13;;
63201;SDS011;49296;48.188;11.566;2023-02-18T05:28:32;4.30;;;2.30;;
63201;SDS011;49296;48.188;11.566;2023-02-18T05:30:59;5.70;;;3.88;;
63201;SDS011;49296;48.188;11.566;2023-02-18T05:33:25;3.78;;;2.22;;
63201;SDS011;49296;48.188;11.566;2023-02-18T05:35:52;3.65;;;2.15;;
63201;SDS011;49296;48.188;11.566;2023-02-18T05:38:19;4.65;;;2.00;;
63201;SDS011;49296;48.188;11.566;2023-02-18T05:40:47;4.22;;;2.47;;
63201;SDS011;49296;48.188;11.566;2023-02-18T05:43:14;3.70;;;1.70;;
63201;SDS011;49296;48.188;11.566;2023-02-18T05:45:40;4.78;;;2.03;;
63201;SDS011;49296;48.188;11.566;2023-02-18T05:48:06;3.53;;;1.80;;
63201;SDS011;49296;48.188;11.566;2023-02-18T05:50:33;3.40;;;1.60;;
63201;SDS011;49296;48.188;11.566;2023-02-18T05:53:00;3.47;;;1.70;;
63201;SDS011;49296;48.188;11.566;2023-02-18T05:55:27;3.58;;;1.58;;
63201;SDS011;49296;48.188;11.566;2023-02-18T05:57:55;4.97;;;1.70;;
63201;SDS011;49296;48.188;11.566;2023-02-18T06:00:22;3.13;;;1.50;;
63201;SDS011;49296;48.188;11.566;2023-02-18T06:02:49;2.80;;;1.23;;
63201;SDS011;49296;48.188;11.566;2023-02-18T06:05:16;2.67;;;1.10;;
63201;SDS011;49296;48.188;11.566;2023-02-18T06:07:43;2.65;;;1.08;;
63201;SDS011;49296;48.188;11.566;2023-02-18T06:10:10;4.28;;;1.55;;
63201;SDS011;49296;48.188;11.566;2023-02-18T06:12:36;2.67;;;1.25;;
63201;SDS011;49296;48.188;11.566;2023-02-18T06:15:05;2.70;;;1.20;;
63201;SDS011;49296;48.188;11.566;2023-02-18T06:17:32;3.25;;;1.30;;
63201;SDS011;49296;48.188;11.566;2023-02-18T06:19:59;5.63;;;1.58;;
63201;SDS011;49296;48.188;11.566;2023-02-18T06:22:25;3.50;;;1.60;;
63201;SDS011;49296;48.188;11.566;2023-02-18T06:24:52;2.63;;;1.20;;
63201;SDS011;49296;48.188;11.566;2023-02-18T06:27:19;2.60;;;1.17;;
63201;SDS011;49296;48.188;11.566;2023-02-18T06:29:46;3.17;;;1.23;;
63201;SDS011;49296;48.188;11.566;2023-02-18T06:32:14;2.70;;;1.10;;
63201;SDS011;49296;48.188;11.566;2023-02-18T06:34:41;2.42;;;1.33;;
63201;SDS011;49296;48.188;11.566;2023-02-18T06:37:07;3.17;;;1.42;;
63201;SDS011;49296;48.188;11.566;2023-02-18T06:39:34;2.65;;;1.10;;
63201;SDS011;49296;48.188;11.566;2023-02-18T06:42:00;2.28;;;1.08;;
63201;SDS011;49296;48.188;11.566;2023-02-18T06:44:27;3.08;;;1.23;;
63201;SDS011;49296;48.188;11.566;2023-02-18T06:46:54;3.85;;;1.00;;
63201;SDS011;49296;48.188;11.566;2023-02-18T06:49:22;1.70;;;1.15;;
63201;SDS011;49296;48.188;11.566;2023-02-18T06:51:48;2.63;;;1.13;;
63201;SDS011;49296;48.188;11.566;2023-02-18T06:54:15;2.35;;;0.93;;
63201;SDS011;49296;48.188;11.566;2023-02-18T06:56:42;2.72;;;1.02;;
63201;SDS011;49296;48.188;11.566;2023-02-18T06:59:09;2.50;;;1.17;;
63201;SDS011;49296;48.188;11.566;2023-02-18T07:01:35;3.22;;;1.10;;
63201;SDS011;49296;48.188;11.566;2023-02-18T07:04:02;2.78;;;1.20;;
63201;SDS011;49296;48.188;11.566;2023-02-18T07:06:30;2.60;;;0.90;;
63201;SDS011;49296;48.188;11.566;2023-02-18T07:08:57;2.42;;;0.80;;
63201;SDS011;49296;48.188;11.566;2023-02-18T07:11:23;2.53;;;1.10;;
63201;SDS011;49296;48.188;11.566;2023-02-18T07:13:50;2.55;;;0.80;;
63201;SDS011;49296;48.188;11.566;2023-02-18T07:16:17;3.15;;;0.90;;
63201;SDS011;49296;48.188;11.566;2023-02-18T07:18:43;2.28;;;1.00;;
63201;SDS011;49296;48.188;11.566;2023-02-18T07:21:11;2.60;;;1.23;;
63201;SDS011;49296;48.188;11.566;2023-02-18T07:23:39;2.75;;;1.15;;
63201;SDS011;49296;48.188;11.566;2023-02-18T07:26:06;2.40;;;0.88;;
63201;SDS011;49296;48.188;11.566;2023-02-18T07:28:34;2.28;;;1.00;;
63201;SDS011;49296;48.188;11.566;2023-02-18T07:31:01;2.60;;;1.00;;
63201;SDS011;49296;48.188;11.566;2023-02-18T07:33:27;1.88;;;0.85;;
63201;SDS011;49296;48.188;11.566;2023-02-18T07:35:54;2.58;;;0.82;;
63201;SDS011;49296;48.188;11.566;2023-02-18T07:38:22;3.33;;;1.00;;
63201;SDS011;49296;48.188;11.566;2023-02-18T07:40:51;1.83;;;0.80;;
63201;SDS011;49296;48.188;11.566;2023-02-18T07:43:19;2.03;;;0.80;;
63201;SDS011;49296;48.188;11.566;2023-02-18T07:45:46;1.77;;;0.80;;
63201;SDS011;49296;48.188;11.566;2023-02-18T07:48:13;2.30;;;1.02;;
63201;SDS011;49296;48.188;11.566;2023-02-18T07:50:42;1.77;;;0.80;;
63201;SDS011;49296;48.188;11.566;2023-02-18T07:53:10;2.58;;;0.85;;
63201;SDS011;49296;48.188;11.566;2023-02-18T07:55:38;3.17;;;0.70;;
63201;SDS011;49296;48.188;11.566;2023-02-18T07:58:18;1.40;;;0.77;;
63201;SDS011;49296;48.188;11.566;2023-02-18T08:00:47;3.60;;;0.90;;
63201;SDS011;49296;48.188;11.566;2023-02-18T08:03:15;1.55;;;0.77;;
63201;SDS011;49296;48.188;11.566;2023-02-18T08:05:43;1.60;;;0.80;;
63201;SDS011;49296;48.188;11.566;2023-02-18T08:08:11;2.13;;;0.90;;
63201;SDS011;49296;48.188;11.566;2023-02-18T08:10:38;2.00;;;1.20;;
63201;SDS011;49296;48.188;11.566;2023-02-18T08:13:05;3.88;;;1.45;;
63201;SDS011;49296;48.188;11.566;2023-02-18T08:15:33;1.88;;;0.95;;
63201;SDS011;49296;48.188;11.566;2023-02-18T08:18:01;2.30;;;0.98;;
63201;SDS011;49296;48.188;11.566;2023-02-18T08:20:27;2.67;;;1.73;;
63201;SDS011;49296;48.188;11.566;2023-02-18T08:22:54;2.15;;;0.90;;
63201;SDS011;49296;48.188;11.566;2023-02-18T08:25:21;3.22;;;1.20;;
63201;SDS011;49296;48.188;11.566;2023-02-18T08:27:48;2.65;;;1.13;;
63201;SDS011;49296;48.188;11.566;2023-02-18T08:30:14;3.58;;;1.42;;
63201;SDS011;49296;48.188;11.566;2023-02-18T08:32:42;6.88;;;1.50;;
63201;SDS011;49296;48.188;11.566;2023-02-18T08:35:09;2.25;;;1.25;;
63201;SDS011;49296;48.188;11.566;2023-02-18T08:37:37;1.80;;;0.88;;
63201;SDS011;49296;48.188;11.566;2023-02-18T08:40:04;1.73;;;0.73;;
63201;SDS011;49296;48.188;11.566;2023-02-18T08:42:31;3.10;;;1.20;;
63201;SDS011;49296;48.188;11.566;2023-02-18T08:44:58;1.25;;;0.73;;
63201;SDS011;49296;48.188;11.566;2023-02-18T08:47:25;2.90;;;0.80;;
63201;SDS011;49296;48.188;11.566;2023-02-18T08:49:53;2.88;;;0.95;;
63201;SDS011;49296;48.188;11.566;2023-02-18T08:52:20;3.10;;;0.70;;
63201;SDS011;49296;48.188;11.566;2023-02-18T08:54:46;1.80;;;1.05;;
63201;SDS011;49296;48.188;11.566;2023-02-18T08:57:13;2.15;;;0.98;;
63201;SDS011;49296;48.188;11.566;2023-02-18T08:59:40;2.40;;;1.02;;
63201;SDS011;49296;48.188;11.566;2023-02-18T09:02:08;2.08;;;1.00;;
63201;SDS011;49296;48.188;11.566;2023-02-18T09:04:36;3.15;;;1.02;;
63201;SDS011;49296;48.188;11.566;2023-02-18T09:07:04;2.30;;;1.10;;
63201;SDS011;49296;48.188;11.566;2023-02-18T09:09:30;4.50;;;1.38;;
63201;SDS011;49296;48.188;11.566;2023-02-18T09:11:57;3.55;;;1.33;;
63201;SDS011;49296;48.188;11.566;2023-02-18T09:14:24;1.75;;;1.00;;
63201;SDS011;49296;48.188;11.566;2023-02-18T09:16:50;2.97;;;1.15;;
63201;SDS011;49296;48.188;11.566;2023-02-18T09:19:17;1.55;;;1.08;;
63201;SDS011;49296;48.188;11.566;2023-02-18T09:21:44;3.45;;;1.17;;
63201;SDS011;49296;48.188;11.566;2023-02-18T09:24:12;3.17;;;1.10;;
63201;SDS011;49296;48.188;11.566;2023-02-18T09:26:39;4.30;;;1.30;;
63201;SDS011;49296;48.188;11.566;2023-02-18T09:29:08;2.95;;;1.10;;
63201;SDS011;49296;48.188;11.566;2023-02-18T09:31:35;3.35;;;1.15;;
63201;SDS011;49296;48.188;11.566;2023-02-18T09:34:02;2.40;;;1.02;;
63201;SDS011;49296;48.188;11.566;2023-02-18T09:36:29;2.47;;;1.00;;
63201;SDS011;49296;48.188;11.566;2023-02-18T09:38:56;3.03;;;1.02;;
63201;SDS011;49296;48.188;11.566;2023-02-18T09:41:28;4.43;;;2.05;;
63201;SDS011;49296;48.188;11.566;2023-02-18T09:44:00;4.03;;;1.20;;
63201;SDS011;49296;48.188;11.566;2023-02-18T09:46:30;4.13;;;1.45;;
63201;SDS011;49296;48.188;11.566;2023-02-18T09:49:00;5.15;;;1.30;;
63201;SDS011;49296;48.188;11.566;2023-02-18T09:51:29;2.90;;;1.00;;
63201;SDS011;49296;48.188;11.566;2023-02-18T09:53:56;2.40;;;1.20;;
63201;SDS011;49296;48.188;11.566;2023-02-18T09:56:25;3.88;;;1.17;;
63201;SDS011;49296;48.188;11.566;2023-02-18T09:58:54;3.65;;;1.30;;
63201;SDS011;49296;48.188;11.566;2023-02-18T10:01:26;2.75;;;1.30;;
63201;SDS011;49296;48.188;11.566;2023-02-18T10:03:57;3.20;;;1.20;;
63201;SDS011;49296;48.188;11.566;2023-02-18T10:06:28;3.25;;;1.10;;
63201;SDS011;49296;48.188;11.566;2023-02-18T10:08:57;3.37;;;1.10;;
63201;SDS011;49296;48.188;11.566;2023-02-18T10:11:29;3.13;;;1.10;;
63201;SDS011;49296;48.188;11.566;2023-02-18T10:13:58;3.58;;;1.50;;
63201;SDS011;49296;48.188;11.566;2023-02-18T10:16:26;2.60;;;1.23;;
63201;SDS011;49296;48.188;11.566;2023-02-18T10:18:54;2.53;;;1.30;;
63201;SDS011;49296;48.188;11.566;2023-02-18T10:21:24;2.90;;;1.17;;
63201;SDS011;49296;48.188;11.566;2023-02-18T10:23:53;2.00;;;1.10;;
63201;SDS011;49296;48.188;11.566;2023-02-18T10:26:25;2.65;;;1.10;;
63201;SDS011;49296;48.188;11.566;2023-02-18T10:28:55;2.97;;;1.10;;
63201;SDS011;49296;48.188;11.566;2023-02-18T10:31:24;4.68;;;1.20;;
63201;SDS011;49296;48.188;11.566;2023-02-18T10:33:58;2.10;;;1.00;;
63201;SDS011;49296;48.188;11.566;2023-02-18T10:36:31;4.95;;;1.48;;
63201;SDS011;49296;48.188;11.566;2023-02-18T10:39:09;2.70;;;1.10;;
63201;SDS011;49296;48.188;11.566;2023-02-18T10:41:48;3.30;;;1.33;;
63201;SDS011;49296;48.188;11.566;2023-02-18T10:44:26;3.90;;;1.20;;
63201;SDS011;49296;48.188;11.566;2023-02-18T10:47:03;3.47;;;1.40;;
63201;SDS011;49296;48.188;11.566;2023-02-18T10:49:46;3.08;;;1.10;;
63201;SDS011;49296;48.188;11.566;2023-02-18T10:52:24;3.13;;;1.27;;
63201;SDS011;49296;48.188;11.566;2023-02-18T10:57:24;2.92;;;1.38;;
63201;SDS011;49296;48.188;11.566;2023-02-18T10:59:59;2.72;;;1.38;;
63201;SDS011;49296;48.188;11.566;2023-02-18T11:02:35;2.38;;;1.10;;
63201;SDS011;49296;48.188;11.566;2023-02-18T11:05:04;3.83;;;1.70;;
63201;SDS011;49296;48.188;11.566;2023-02-18T11:07:41;2.30;;;1.20;;
63201;SDS011;49296;48.188;11.566;2023-02-18T11:10:14;3.33;;;1.67;;
63201;SDS011;49296;48.188;11.566;2023-02-18T11:15:20;2.88;;;1.08;;
63201;SDS011;49296;48.188;11.566;2023-02-18T11:17:48;2.47;;;1.13;;
63201;SDS011;49296;48.188;11.566;2023-02-18T11:20:24;3.35;;;1.23;;
63201;SDS011;49296;48.188;11.566;2023-02-18T11:22:57;3.00;;;1.17;;
63201;SDS011;49296;48.188;11.566;2023-02-18T11:25:25;2.03;;;0.95;;
63201;SDS011;49296;48.188;11.566;2023-02-18T11:27:58;1.58;;;0.82;;
63201;SDS011;49296;48.188;11.566;2023-02-18T11:30:31;3.20;;;1.20;;
63201;SDS011;49296;48.188;11.566;2023-02-18T11:33:01;1.85;;;0.90;;
63201;SDS011;49296;48.188;11.566;2023-02-18T11:35:32;3.58;;;1.10;;
63201;SDS011;49296;48.188;11.566;2023-02-18T11:38:00;2.30;;;1.30;;
63201;SDS011;49296;48.188;11.566;2023-02-18T11:40:30;3.17;;;0.98;;
63201;SDS011;49296;48.188;11.566;2023-02-18T11:43:04;2.10;;;0.90;;
63201;SDS011;49296;48.188;11.566;2023-02-18T11:45:36;3.10;;;0.80;;
63201;SDS011;49296;48.188;11.566;2023-02-18T11:48:05;1.80;;;1.10;;
63201;SDS011;49296;48.188;11.566;2023-02-18T11:53:00;1.92;;;1.10;;
63201;SDS011;49296;48.188;11.566;2023-02-18T11:55:52;2.28;;;0.95;;
63201;SDS011;49296;48.188;11.566;2023-02-18T11:58:20;2.53;;;1.10;;
63201;SDS011;49296;48.188;11.566;2023-02-18T12:00:49;3.10;;;1.02;;
63201;SDS011;49296;48.188;11.566;2023-02-18T12:03:19;3.70;;;1.52;;
63201;SDS011;49296;48.188;11.566;2023-02-18T12:05:53;5.57;;;0.80;;
63201;SDS011;49296;48.188;11.566;2023-02-18T12:08:23;2.90;;;1.00;;
63201;SDS011;49296;48.188;11.566;2023-02-18T12:10:52;2.72;;;0.93;;
63201;SDS011;49296;48.188;11.566;2023-02-18T12:13:22;2.87;;;1.13;;
63201;SDS011;49296;48.188;11.566;2023-02-18T12:15:55;2.38;;;1.00;;
63201;SDS011;49296;48.188;11.566;2023-02-18T12:21:25;2.72;;;0.93;;
63201;SDS011;49296;48.188;11.566;2023-02-18T12:24:01;1.73;;;0.80;;
63201;SDS011;49296;48.188;11.566;2023-02-18T12:26:39;1.92;;;1.00;;
63201;SDS011;49296;48.188;11.566;2023-02-18T12:29:26;2.35;;;0.90;;
63201;SDS011;49296;48.188;11.566;2023-02-18T12:32:06;1.90;;;0.90;;
63201;SDS011;49296;48.188;11.566;2023-02-18T12:37:43;3.85;;;1.10;;
63201;SDS011;49296;48.188;11.566;2023-02-18T12:40:26;8.32;;;3.05;;
63201;SDS011;49296;48.188;11.566;2023-02-18T12:43:06;5.28;;;1.98;;
63201;SDS011;49296;48.188;11.566;2023-02-18T12:45:44;3.10;;;1.10;;
63201;SDS011;49296;48.188;11.566;2023-02-18T12:51:38;2.10;;;1.10;;
63201;SDS011;49296;48.188;11.566;2023-02-18T12:54:18;18.30;;;6.03;;
63201;SDS011;49296;48.188;11.566;2023-02-18T12:57:02;5.25;;;1.95;;
63201;SDS011;49296;48.188;11.566;2023-02-18T12:59:49;4.57;;;1.52;;
63201;SDS011;49296;48.188;11.566;2023-02-18T13:02:42;5.05;;;1.30;;
63201;SDS011;49296;48.188;11.566;2023-02-18T13:05:26;4.72;;;1.60;;
63201;SDS011;49296;48.188;11.566;2023-02-18T13:08:04;3.40;;;1.20;;
63201;SDS011;49296;48.188;11.566;2023-02-18T13:10:46;3.50;;;1.30;;
63201;SDS011;49296;48.188;11.566;2023-02-18T13:13:22;4.13;;;1.75;;
63201;SDS011;49296;48.188;11.566;2023-02-18T13:15:51;3.42;;;1.45;;
63201;SDS011;49296;48.188;11.566;2023-02-18T13:18:21;3.25;;;1.35;;
63201;SDS011;49296;48.188;11.566;2023-02-18T13:20:53;3.25;;;1.20;;
63201;SDS011;49296;48.188;11.566;2023-02-18T13:23:23;4.17;;;1.30;;
63201;SDS011;49296;48.188;11.566;2023-02-18T13:25:56;4.35;;;1.60;;
63201;SDS011;49296;48.188;11.566;2023-02-18T13:28:25;3.55;;;1.40;;
63201;SDS011;49296;48.188;11.566;2023-02-18T13:31:00;4.38;;;1.50;;
63201;SDS011;49296;48.188;11.566;2023-02-18T13:33:37;2.05;;;1.30;;
63201;SDS011;49296;48.188;11.566;2023-02-18T13:36:12;3.15;;;1.35;;
63201;SDS011;49296;48.188;11.566;2023-02-18T13:38:59;6.25;;;1.27;;
63201;SDS011;49296;48.188;11.566;2023-02-18T13:41:32;3.85;;;1.50;;
63201;SDS011;49296;48.188;11.566;2023-02-18T13:44:00;3.42;;;1.88;;
63201;SDS011;49296;48.188;11.566;2023-02-18T13:46:44;2.25;;;1.23;;
63201;SDS011;49296;48.188;11.566;2023-02-18T13:49:13;2.65;;;1.30;;
63201;SDS011;49296;48.188;11.566;2023-02-18T13:51:47;3.42;;;1.63;;
63201;SDS011;49296;48.188;11.566;2023-02-18T13:54:19;3.53;;;1.50;;
63201;SDS011;49296;48.188;11.566;2023-02-18T13:56:50;2.47;;;1.30;;
63201;SDS011;49296;48.188;11.566;2023-02-18T13:59:21;5.35;;;1.50;;
63201;SDS011;49296;48.188;11.566;2023-02-18T14:01:52;4.80;;;1.35;;
63201;SDS011;49296;48.188;11.566;2023-02-18T14:07:20;4.13;;;1.85;;
63201;SDS011;49296;48.188;11.566;2023-02-18T14:09:54;2.88;;;1.20;;
63201;SDS011;49296;48.188;11.566;2023-02-18T14:18:24;3.53;;;1.50;;
63201;SDS011;49296;48.188;11.566;2023-02-18T14:21:02;3.72;;;1.30;;
63201;SDS011;49296;48.188;11.566;2023-02-18T14:23:43;3.03;;;1.33;;
63201;SDS011;49296;48.188;11.566;2023-02-18T14:26:28;4.03;;;1.40;;
63201;SDS011;49296;48.188;11.566;2023-02-18T14:28:59;3.40;;;1.48;;
63201;SDS011;49296;48.188;11.566;2023-02-18T14:31:33;3.30;;;1.10;;
63201;SDS011;49296;48.188;11.566;2023-02-18T14:36:56;2.23;;;1.13;;
63201;SDS011;49296;48.188;11.566;2023-02-18T14:39:37;3.75;;;1.20;;
63201;SDS011;49296;48.188;11.566;2023-02-18T14:42:16;3.38;;;1.60;;
63201;SDS011;49296;48.188;11.566;2023-02-18T14:48:04;2.75;;;1.30;;
63201;SDS011;49296;48.188;11.566;2023-02-18T14:50:41;4.63;;;1.38;;
63201;SDS011;49296;48.188;11.566;2023-02-18T14:53:10;3.22;;;1.30;;
63201;SDS011;49296;48.188;11.566;2023-02-18T14:55:43;3.45;;;1.42;;
63201;SDS011;49296;48.188;11.566;2023-02-18T14:58:16;2.50;;;1.20;;
63201;SDS011;49296;48.188;11.566;2023-02-18T15:00:53;1.80;;;1.25;;
63201;SDS011;49296;48.188;11.566;2023-02-18T15:03:19;3.88;;;1.48;;
63201;SDS011;49296;48.188;11.566;2023-02-18T15:05:48;2.95;;;1.10;;
63201;SDS011;49296;48.188;11.566;2023-02-18T15:08:16;2.97;;;1.15;;
63201;SDS011;49296;48.188;11.566;2023-02-18T15:10:45;2.67;;;1.20;;
63201;SDS011;49296;48.188;11.566;2023-02-18T15:13:17;2.38;;;1.10;;
63201;SDS011;49296;48.188;11.566;2023-02-18T15:15:47;3.20;;;1.48;;
63201;SDS011;49296;48.188;11.566;2023-02-18T15:18:21;3.30;;;1.50;;
63201;SDS011;49296;48.188;11.566;2023-02-18T15:20:53;2.88;;;1.17;;
63201;SDS011;49296;48.188;11.566;2023-02-18T15:23:20;2.78;;;1.15;;
63201;SDS011;49296;48.188;11.566;2023-02-18T15:25:48;2.05;;;1.00;;
63201;SDS011;49296;48.188;11.566;2023-02-18T15:28:22;3.83;;;1.17;;
63201;SDS011;49296;48.188;11.566;2023-02-18T15:30:52;2.17;;;1.20;;
63201;SDS011;49296;48.188;11.566;2023-02-18T15:33:19;4.82;;;1.70;;